createdAt,value
2023-03-05T00:00:52.291Z,6.72
2023-03-05T00:03:18.838Z,5.07
2023-03-05T00:05:46.672Z,4.97
2023-03-05T00:08:17.561Z,4.53
2023-03-05T00:10:45.752Z,4.35
2023-03-05T00:13:17.152Z,4.88
2023-03-05T00:15:43.670Z,6.47
2023-03-05T00:18:16.329Z,8.35
2023-03-05T00:20:46.811Z,5.78
2023-03-05T00:23:15.742Z,5.85
2023-03-05T00:25:51.285Z,6.93
2023-03-05T00:28:17.936Z,6.25
2023-03-05T00:31:05.096Z,6.90
2023-03-05T00:33:31.655Z,5.05
2023-03-05T00:35:58.800Z,4.97
2023-03-05T00:38:25.302Z,9.02
2023-03-05T00:40:53.214Z,5.57
2023-03-05T00:43:20.095Z,5.97
2023-03-05T00:45:46.503Z,6.57
2023-03-05T00:48:14.949Z,4.85
2023-03-05T00:50:46.387Z,7.70
2023-03-05T00:53:22.321Z,5.07
2023-03-05T00:55:49.644Z,4.50
2023-03-05T00:58:17.964Z,4.15
2023-03-05T01:00:47.645Z,3.42
2023-03-05T01:03:15.928Z,2.63
2023-03-05T01:05:45.545Z,4.47
2023-03-05T01:08:13.822Z,5.72
2023-03-05T01:10:40.354Z,5.70
2023-03-05T01:13:09.356Z,2.15
2023-03-05T01:15:37.167Z,4.25
2023-03-05T01:18:03.784Z,5.03
2023-03-05T01:20:30.353Z,7.75
2023-03-05T01:22:56.759Z,5.72
2023-03-05T01:25:23.196Z,5.38
2023-03-05T01:27:49.663Z,3.88
2023-03-05T01:30:16.213Z,4.80
2023-03-05T01:32:46.732Z,3.83
2023-03-05T01:35:17.428Z,4.55
2023-03-05T01:40:17.554Z,2.63
2023-03-05T01:42:47.026Z,2.95
2023-03-05T01:45:18.210Z,4.07
2023-03-05T01:47:46.002Z,4.22
2023-03-05T01:50:19.638Z,3.53
2023-03-05T01:52:51.709Z,6.40
2023-03-05T01:55:23.583Z,8.85
2023-03-05T01:57:53.654Z,5.88
2023-03-05T02:00:25.435Z,6.80
2023-03-05T02:02:57.590Z,5.25
2023-03-05T02:05:27.133Z,5.13
2023-03-05T02:07:54.846Z,4.63
2023-03-05T02:10:24.355Z,4.50
2023-03-05T02:12:52.927Z,6.32
2023-03-05T02:15:19.387Z,3.20
2023-03-05T02:17:46.024Z,5.95
2023-03-05T02:20:17.480Z,2.30
2023-03-05T02:22:47.737Z,2.20
2023-03-05T02:25:16.763Z,5.15
2023-03-05T02:27:50.433Z,4.43
2023-03-05T02:30:17.716Z,3.92
2023-03-05T02:32:46.036Z,3.20
2023-03-05T02:35:15.142Z,7.10
2023-03-05T02:37:41.730Z,6.28
2023-03-05T02:40:21.505Z,4.22
2023-03-05T02:42:47.994Z,4.78
2023-03-05T02:45:15.517Z,3.83
2023-03-05T02:47:42.168Z,6.20
2023-03-05T02:50:13.433Z,4.38
2023-03-05T02:52:45.138Z,6.22
2023-03-05T02:55:15.858Z,4.78
2023-03-05T02:57:45.345Z,4.32
2023-03-05T03:00:17.672Z,7.28
2023-03-05T03:02:46.363Z,5.18
2023-03-05T03:05:16.940Z,7.30
2023-03-05T03:07:43.385Z,3.97
2023-03-05T03:10:11.405Z,6.35
2023-03-05T03:12:39.698Z,8.70
2023-03-05T03:15:07.452Z,5.95
2023-03-05T03:17:35.846Z,3.08
2023-03-05T03:20:03.525Z,6.35
2023-03-05T03:22:30.068Z,5.72
2023-03-05T03:24:56.469Z,6.70
2023-03-05T03:27:22.945Z,3.08
2023-03-05T03:29:50.721Z,5.22
2023-03-05T03:32:17.235Z,3.38
2023-03-05T03:34:43.694Z,5.45
2023-03-05T03:37:17.065Z,3.75
2023-03-05T03:39:47.323Z,4.93
2023-03-05T03:42:17.109Z,4.25
2023-03-05T03:44:43.541Z,5.75
2023-03-05T03:47:11.362Z,4.50
2023-03-05T03:49:37.788Z,4.63
2023-03-05T03:52:05.113Z,6.45
2023-03-05T03:54:32.107Z,6.28
2023-03-05T03:56:58.520Z,3.95
2023-03-05T03:59:24.932Z,4.53
2023-03-05T04:01:51.516Z,4.25
2023-03-05T04:04:19.343Z,5.30
2023-03-05T04:06:45.864Z,4.15
2023-03-05T04:09:14.227Z,4.18
2023-03-05T04:11:44.057Z,4.30
2023-03-05T04:14:14.867Z,5.22
2023-03-05T04:16:42.885Z,4.18
2023-03-05T04:19:13.235Z,2.70
2023-03-05T04:21:47.571Z,3.92
2023-03-05T04:24:14.038Z,4.57
2023-03-05T04:26:43.296Z,2.88
2023-03-05T04:29:09.807Z,4.38
2023-03-05T04:31:38.306Z,2.30
2023-03-05T04:34:04.682Z,2.47
2023-03-05T04:36:31.185Z,2.80
2023-03-05T04:38:58.938Z,5.45
2023-03-05T04:41:25.412Z,2.95
2023-03-05T04:43:51.994Z,2.97
2023-03-05T04:46:18.444Z,3.00
2023-03-05T04:48:44.994Z,5.03
2023-03-05T04:51:13.104Z,4.13
2023-03-05T04:53:39.547Z,3.20
2023-03-05T04:56:16.520Z,2.15
2023-03-05T04:58:43.098Z,4.45
2023-03-05T05:01:09.541Z,2.65
2023-03-05T05:03:43.186Z,2.95
2023-03-05T05:06:16.718Z,5.22
2023-03-05T05:08:46.994Z,2.40
2023-03-05T05:11:17.454Z,2.05
2023-03-05T05:13:46.205Z,7.22
2023-03-05T05:16:16.886Z,5.28
2023-03-05T05:21:11.212Z,3.97
2023-03-05T05:23:37.919Z,3.17
2023-03-05T05:26:07.100Z,3.72
2023-03-05T05:28:35.508Z,3.58
2023-03-05T05:31:20.117Z,3.90
2023-03-05T05:33:49.699Z,5.50
2023-03-05T05:36:17.730Z,4.93
2023-03-05T05:38:46.221Z,6.05
2023-03-05T05:41:15.114Z,5.18
2023-03-05T05:43:43.078Z,6.22
2023-03-05T05:46:16.273Z,7.20
2023-03-05T05:48:45.638Z,4.28
2023-03-05T05:51:14.811Z,5.75
2023-03-05T05:53:43.774Z,4.35
2023-03-05T05:56:14.283Z,5.70
2023-03-05T05:58:42.179Z,3.83
2023-03-05T06:01:15.166Z,4.70
2023-03-05T06:03:42.978Z,6.25
2023-03-05T06:06:16.505Z,5.72
2023-03-05T06:08:45.709Z,5.38
2023-03-05T06:11:16.335Z,3.20
2023-03-05T06:13:45.457Z,4.10
2023-03-05T06:16:15.761Z,4.97
2023-03-05T06:18:50.252Z,3.35
2023-03-05T06:21:18.482Z,4.03
2023-03-05T06:23:47.117Z,2.40
2023-03-05T06:26:21.204Z,3.95
2023-03-05T06:28:48.689Z,2.63
2023-03-05T06:31:18.844Z,6.03
2023-03-05T06:33:45.460Z,4.10
2023-03-05T06:36:14.189Z,8.63
2023-03-05T06:38:41.074Z,4.88
2023-03-05T06:41:11.809Z,4.72
2023-03-05T06:43:48.172Z,7.78
2023-03-05T06:46:17.438Z,5.85
2023-03-05T06:48:44.260Z,5.00
2023-03-05T06:51:15.719Z,7.72
2023-03-05T06:53:46.360Z,4.00
2023-03-05T06:56:20.804Z,6.10
2023-03-05T06:58:51.069Z,5.85
2023-03-05T07:01:19.885Z,5.45
2023-03-05T07:03:52.275Z,5.25
2023-03-05T07:06:18.754Z,4.60
2023-03-05T07:08:47.025Z,4.63
2023-03-05T07:11:17.072Z,5.45
2023-03-05T07:13:43.819Z,6.68
2023-03-05T07:16:17.538Z,4.43
2023-03-05T07:18:45.995Z,3.38
2023-03-05T07:21:15.881Z,5.20
2023-03-05T07:23:42.394Z,4.93
2023-03-05T07:26:08.892Z,5.65
2023-03-05T07:28:35.387Z,5.97
2023-03-05T07:31:03.852Z,5.13
2023-03-05T07:33:30.699Z,5.10
2023-03-05T07:36:02.170Z,5.70
2023-03-05T07:38:28.650Z,8.38
2023-03-05T07:40:55.094Z,8.32
2023-03-05T07:43:21.523Z,5.60
2023-03-05T07:45:49.174Z,6.25
2023-03-05T07:48:18.052Z,5.10
2023-03-05T07:50:51.113Z,4.82
2023-03-05T07:53:18.976Z,4.72
2023-03-05T07:55:47.282Z,6.90
2023-03-05T07:58:21.002Z,5.65
2023-03-05T08:00:47.740Z,5.55
2023-03-05T08:03:14.218Z,6.88
2023-03-05T08:05:46.042Z,5.55
2023-03-05T08:08:15.952Z,8.32
2023-03-05T08:10:46.424Z,4.65
2023-03-05T08:13:15.820Z,6.63
2023-03-05T08:15:42.470Z,5.57
2023-03-05T08:18:08.968Z,4.97
2023-03-05T08:20:36.070Z,3.78
2023-03-05T08:23:04.201Z,4.88
2023-03-05T08:25:30.660Z,5.38
2023-03-05T08:27:58.454Z,4.88
2023-03-05T08:30:25.049Z,7.32
2023-03-05T08:32:51.901Z,6.40
2023-03-05T08:35:18.301Z,3.97
2023-03-05T08:37:44.894Z,5.05
2023-03-05T08:40:19.713Z,4.50
2023-03-05T08:42:46.123Z,6.68
2023-03-05T08:45:14.112Z,4.93
2023-03-05T08:47:42.984Z,3.03
2023-03-05T08:50:11.619Z,4.95
2023-03-05T08:52:40.580Z,5.25
2023-03-05T08:55:15.531Z,5.05
2023-03-05T08:57:46.766Z,4.35
2023-03-05T09:00:15.469Z,7.13
2023-03-05T09:02:43.479Z,9.00
2023-03-05T09:05:14.163Z,4.75
2023-03-05T09:07:40.745Z,9.35
2023-03-05T09:10:08.465Z,6.60
2023-03-05T09:12:34.900Z,5.68
2023-03-05T09:15:01.309Z,6.10
2023-03-05T09:17:29.056Z,7.65
2023-03-05T09:19:55.457Z,9.18
2023-03-05T09:22:21.895Z,6.53
2023-03-05T09:24:48.317Z,6.22
2023-03-05T09:27:16.525Z,8.18
2023-03-05T09:29:44.237Z,6.38
2023-03-05T09:32:15.673Z,5.90
2023-03-05T09:34:48.201Z,5.85
2023-03-05T09:37:16.700Z,5.15
2023-03-05T09:39:45.097Z,6.15
2023-03-05T09:42:29.096Z,7.82
2023-03-05T09:45:08.939Z,8.05
2023-03-05T09:47:48.621Z,6.50
2023-03-05T09:50:34.859Z,6.32
2023-03-05T09:53:07.858Z,5.50
2023-03-05T09:55:37.169Z,6.30
2023-03-05T09:58:07.386Z,4.75
2023-03-05T10:00:39.001Z,4.13
2023-03-05T10:03:11.400Z,4.28
2023-03-05T10:05:53.426Z,4.55
2023-03-05T10:08:24.746Z,7.50
2023-03-05T10:10:53.233Z,4.82
2023-03-05T10:13:24.203Z,5.00
2023-03-05T10:16:00.898Z,3.50
2023-03-05T10:18:34.784Z,3.78
2023-03-05T10:21:04.440Z,4.97
2023-03-05T10:23:58.777Z,4.05
2023-03-05T10:26:47.046Z,3.83
2023-03-05T10:29:34.355Z,7.43
2023-03-05T10:32:15.860Z,5.13
2023-03-05T10:34:57.688Z,3.50
2023-03-05T10:37:44.986Z,5.70
2023-03-05T10:40:22.184Z,4.38
2023-03-05T10:42:58.127Z,4.63
2023-03-05T10:45:28.952Z,5.35
2023-03-05T10:47:59.307Z,4.70
2023-03-05T10:50:27.486Z,7.30
2023-03-05T10:53:07.325Z,7.00
2023-03-05T10:55:33.794Z,6.93
2023-03-05T10:58:02.012Z,9.68
2023-03-05T11:00:28.661Z,7.03
2023-03-05T11:03:00.968Z,6.22
2023-03-05T11:05:46.254Z,4.18
2023-03-05T11:08:25.932Z,5.97
2023-03-05T11:11:15.407Z,3.97
2023-03-05T11:13:56.431Z,3.33
2023-03-05T11:16:25.025Z,3.45
2023-03-05T11:19:15.470Z,4.30
2023-03-05T11:21:45.242Z,4.25
2023-03-05T11:24:18.241Z,3.60
2023-03-05T11:26:51.076Z,2.95
2023-03-05T11:29:21.055Z,5.20
2023-03-05T11:31:47.928Z,4.25
2023-03-05T11:34:30.279Z,6.45
2023-03-05T11:37:03.869Z,4.85
2023-03-05T11:39:32.922Z,4.38
2023-03-05T11:42:02.709Z,5.75
2023-03-05T11:44:32.293Z,6.50
2023-03-05T11:47:04.227Z,6.15
2023-03-05T11:49:34.127Z,3.35
2023-03-05T11:52:07.413Z,2.80
2023-03-05T11:54:42.661Z,5.57
2023-03-05T11:57:19.067Z,3.92
2023-03-05T11:59:46.003Z,3.85
2023-03-05T12:02:19.441Z,4.32
2023-03-05T12:04:47.424Z,5.88
2023-03-05T12:07:17.825Z,2.53
2023-03-05T12:09:52.010Z,4.15
2023-03-05T12:12:33.332Z,3.95
2023-03-05T12:15:15.049Z,5.97
2023-03-05T12:17:47.507Z,2.78
2023-03-05T12:20:22.842Z,2.67
2023-03-05T12:22:50.435Z,3.60
2023-03-05T12:25:26.383Z,3.25
2023-03-05T12:27:53.002Z,2.50
2023-03-05T12:30:55.373Z,3.63
2023-03-05T12:33:36.695Z,4.88
2023-03-05T12:36:40.817Z,4.82
2023-03-05T12:39:56.624Z,3.25
2023-03-05T12:42:47.438Z,2.63
2023-03-05T12:45:38.952Z,3.67
2023-03-05T12:48:34.417Z,4.85
2023-03-05T12:53:27.797Z,5.93
2023-03-05T12:55:59.093Z,6.10
2023-03-05T12:58:37.245Z,4.95
2023-03-05T13:01:15.280Z,2.58
2023-03-05T13:03:52.831Z,2.67
2023-03-05T13:06:25.918Z,2.17
2023-03-05T13:08:57.325Z,3.13
2023-03-05T13:11:28.316Z,4.80
2023-03-05T13:13:56.999Z,3.35
2023-03-05T13:16:26.003Z,2.60
2023-03-05T13:18:54.386Z,3.22
2023-03-05T13:21:25.342Z,3.28
2023-03-05T13:23:53.286Z,2.67
2023-03-05T13:26:20.758Z,2.80
2023-03-05T13:29:08.949Z,2.30
2023-03-05T13:31:44.925Z,4.80
2023-03-05T13:34:21.058Z,2.53
2023-03-05T13:36:52.672Z,3.05
2023-03-05T13:39:23.153Z,2.50
2023-03-05T13:41:58.695Z,4.22
2023-03-05T13:44:26.816Z,2.88
2023-03-05T13:46:53.275Z,5.55
2023-03-05T13:49:22.821Z,4.50
2023-03-05T13:51:51.426Z,3.55
2023-03-05T13:54:19.439Z,3.58
2023-03-05T13:56:51.391Z,3.13
2023-03-05T13:59:20.597Z,3.30
2023-03-05T14:01:49.022Z,5.38
2023-03-05T14:04:21.885Z,3.83
2023-03-05T14:06:55.513Z,3.00
2023-03-05T14:09:23.944Z,2.55
2023-03-05T14:11:55.871Z,2.47
2023-03-05T14:14:23.673Z,2.08
2023-03-05T14:16:51.780Z,2.30
2023-03-05T14:19:46.736Z,5.13
2023-03-05T14:22:34.755Z,3.15
2023-03-05T14:25:01.434Z,2.72
2023-03-05T14:27:33.319Z,3.13
2023-03-05T14:30:00.206Z,3.03
2023-03-05T14:32:32.171Z,3.08
2023-03-05T14:35:00.662Z,2.33
2023-03-05T14:37:32.195Z,3.00
2023-03-05T14:40:24.541Z,3.75
2023-03-05T14:42:52.746Z,2.20
2023-03-05T14:45:21.472Z,2.88
2023-03-05T14:47:49.502Z,3.35
2023-03-05T14:50:19.962Z,3.20
2023-03-05T14:55:21.871Z,2.00
2023-03-05T14:57:48.853Z,3.17
2023-03-05T15:00:20.384Z,1.70
2023-03-05T15:02:48.586Z,1.88
2023-03-05T15:05:17.732Z,3.92
2023-03-05T15:07:46.106Z,3.72
2023-03-05T15:10:20.717Z,4.22
2023-03-05T15:12:47.638Z,2.85
2023-03-05T15:15:17.571Z,4.53
2023-03-05T15:17:46.698Z,2.67
2023-03-05T15:20:21.031Z,2.60
2023-03-05T15:22:47.824Z,2.70
2023-03-05T15:25:22.424Z,2.63
2023-03-05T15:27:49.986Z,2.53
2023-03-05T15:30:24.187Z,3.60
2023-03-05T15:32:52.678Z,3.45
2023-03-05T15:35:22.241Z,1.98
2023-03-05T15:40:26.856Z,1.90
2023-03-05T15:42:53.901Z,2.90
2023-03-05T15:45:21.860Z,4.93
2023-03-05T15:47:48.889Z,5.07
2023-03-05T15:50:17.835Z,6.28
2023-03-05T15:52:47.794Z,3.72
2023-03-05T15:55:14.304Z,3.65
2023-03-05T15:57:45.383Z,3.53
2023-03-05T16:00:16.989Z,4.38
2023-03-05T16:02:49.466Z,3.22
2023-03-05T16:05:16.072Z,3.45
2023-03-05T16:07:46.001Z,2.50
2023-03-05T16:10:18.044Z,1.75
2023-03-05T16:12:49.773Z,3.65
2023-03-05T16:15:18.199Z,3.75
2023-03-05T16:17:51.165Z,4.10
2023-03-05T16:20:18.180Z,3.83
2023-03-05T16:22:46.178Z,4.05
2023-03-05T16:25:25.415Z,4.70
2023-03-05T16:27:55.979Z,3.95
2023-03-05T16:30:25.298Z,4.45
2023-03-05T16:32:53.883Z,4.60
2023-03-05T16:35:20.912Z,4.88
2023-03-05T16:37:48.703Z,5.10
2023-03-05T16:40:17.868Z,3.75
2023-03-05T16:42:44.559Z,3.65
2023-03-05T16:45:15.976Z,3.58
2023-03-05T16:47:46.601Z,3.70
2023-03-05T16:50:13.144Z,3.28
2023-03-05T16:52:43.040Z,5.18
2023-03-05T16:55:15.079Z,5.40
2023-03-05T16:57:48.281Z,7.32
2023-03-05T17:00:19.117Z,8.00
2023-03-05T17:02:47.666Z,5.50
2023-03-05T17:05:16.318Z,7.15
2023-03-05T17:07:42.920Z,8.68
2023-03-05T17:10:13.001Z,6.72
2023-03-05T17:12:46.272Z,6.03
2023-03-05T17:15:15.798Z,6.95
2023-03-05T17:17:49.604Z,5.13
2023-03-05T17:20:19.238Z,5.28
2023-03-05T17:22:45.773Z,5.28
2023-03-05T17:25:17.332Z,4.28
2023-03-05T17:27:45.979Z,5.82
2023-03-05T17:30:20.986Z,7.82
2023-03-05T17:32:47.491Z,8.32
2023-03-05T17:35:17.484Z,8.85
2023-03-05T17:37:51.247Z,9.45
2023-03-05T17:40:19.137Z,8.38
2023-03-05T17:42:45.670Z,10.13
2023-03-05T17:45:13.724Z,8.95
2023-03-05T17:47:40.755Z,5.38
2023-03-05T17:50:08.675Z,6.32
2023-03-05T17:52:35.866Z,7.35
2023-03-05T17:55:02.365Z,6.75
2023-03-05T17:57:30.187Z,4.22
2023-03-05T17:59:57.686Z,6.40
2023-03-05T18:02:24.104Z,4.97
2023-03-05T18:04:50.530Z,5.45
2023-03-05T18:07:17.123Z,4.22
2023-03-05T18:09:43.599Z,5.50
2023-03-05T18:12:10.040Z,10.88
2023-03-05T18:14:37.805Z,10.65
2023-03-05T18:17:04.234Z,9.65
2023-03-05T18:19:36.612Z,6.82
2023-03-05T18:22:06.557Z,8.55
2023-03-05T18:24:33.533Z,8.10
2023-03-05T18:27:00.109Z,7.45
2023-03-05T18:29:26.734Z,7.60
2023-03-05T18:31:57.798Z,7.53
2023-03-05T18:34:24.264Z,5.22
2023-03-05T18:36:50.920Z,4.90
2023-03-05T18:39:17.587Z,3.67
2023-03-05T18:41:48.192Z,4.78
2023-03-05T18:44:16.325Z,3.60
2023-03-05T18:46:53.846Z,4.57
2023-03-05T18:49:24.794Z,4.70
2023-03-05T18:51:51.242Z,5.68
2023-03-05T18:54:17.698Z,5.82
2023-03-05T18:56:46.131Z,6.18
2023-03-05T18:59:14.001Z,7.43
2023-03-05T19:01:43.577Z,6.82
2023-03-05T19:04:16.353Z,6.10
2023-03-05T19:06:45.633Z,10.10
2023-03-05T19:09:19.716Z,6.07
2023-03-05T19:11:46.942Z,5.88
2023-03-05T19:14:21.995Z,5.80
2023-03-05T19:16:48.491Z,9.18
2023-03-05T19:19:15.013Z,7.20
2023-03-05T19:21:43.570Z,9.35
2023-03-05T19:24:15.859Z,8.90
2023-03-05T19:26:48.682Z,7.78
2023-03-05T19:29:17.417Z,8.70
2023-03-05T19:31:43.884Z,8.52
2023-03-05T19:34:10.524Z,8.38
2023-03-05T19:36:37.126Z,8.55
2023-03-05T19:39:04.299Z,11.13
2023-03-05T19:41:32.803Z,8.82
2023-03-05T19:44:02.355Z,10.35
2023-03-05T19:46:28.850Z,10.85
2023-03-05T19:48:58.902Z,8.20
2023-03-05T19:51:26.025Z,5.70
2023-03-05T19:53:52.886Z,5.65
2023-03-05T19:56:19.456Z,4.45
2023-03-05T19:58:47.616Z,4.45
2023-03-05T20:01:16.942Z,4.95
2023-03-05T20:03:44.362Z,4.28
2023-03-05T20:06:10.809Z,3.88
2023-03-05T20:08:37.453Z,4.13
2023-03-05T20:11:04.021Z,4.00
2023-03-05T20:13:30.718Z,3.17
2023-03-05T20:15:58.705Z,4.60
2023-03-05T20:18:25.425Z,6.57
2023-03-05T20:20:52.666Z,3.50
2023-03-05T20:23:19.348Z,4.25
2023-03-05T20:25:45.854Z,5.38
2023-03-05T20:28:18.091Z,7.90
2023-03-05T20:30:46.233Z,6.63
2023-03-05T20:33:17.086Z,6.07
2023-03-05T20:35:45.539Z,5.55
2023-03-05T20:38:13.166Z,5.47
2023-03-05T20:40:39.626Z,5.47
2023-03-05T20:43:06.079Z,4.00
2023-03-05T20:45:33.901Z,7.43
2023-03-05T20:48:00.322Z,4.60
2023-03-05T20:50:28.158Z,4.88
2023-03-05T20:52:54.622Z,5.95
2023-03-05T20:55:21.258Z,5.45
2023-03-05T20:57:47.686Z,5.38
2023-03-05T21:00:17.440Z,8.57
2023-03-05T21:02:43.937Z,5.53
2023-03-05T21:05:15.722Z,4.50
2023-03-05T21:07:48.017Z,4.30
2023-03-05T21:10:15.831Z,5.07
2023-03-05T21:12:42.573Z,3.83
2023-03-05T21:15:09.956Z,3.58
2023-03-05T21:17:36.419Z,4.32
2023-03-05T21:20:05.036Z,4.30
2023-03-05T21:22:51.017Z,3.55
2023-03-05T21:25:21.715Z,5.20
2023-03-05T21:27:50.706Z,3.92
2023-03-05T21:30:18.053Z,3.72
2023-03-05T21:32:44.921Z,3.92
2023-03-05T21:35:17.008Z,5.85
2023-03-05T21:37:45.279Z,5.05
2023-03-05T21:40:15.873Z,4.90
2023-03-05T21:45:18.016Z,5.20
2023-03-05T21:47:45.148Z,5.05
2023-03-05T21:50:14.212Z,5.15
2023-03-05T21:52:40.880Z,3.60
2023-03-05T21:55:08.362Z,6.28
2023-03-05T21:57:34.780Z,5.80
2023-03-05T22:00:06.501Z,5.15
2023-03-05T22:02:39.640Z,5.50
2023-03-05T22:05:09.325Z,4.32
2023-03-05T22:07:38.623Z,6.10
2023-03-05T22:10:06.705Z,6.32
2023-03-05T22:12:33.316Z,4.30
2023-03-05T22:14:59.950Z,4.57
2023-03-05T22:17:27.772Z,4.80
2023-03-05T22:19:54.268Z,5.43
2023-03-05T22:22:20.661Z,5.75
2023-03-05T22:24:47.211Z,5.30
2023-03-05T22:27:16.800Z,6.32
2023-03-05T22:29:45.094Z,5.93
2023-03-05T22:32:19.317Z,6.90
2023-03-05T22:34:47.075Z,7.80
2023-03-05T22:37:16.669Z,6.93
2023-03-05T22:39:43.163Z,8.38
2023-03-05T22:42:09.584Z,8.23
2023-03-05T22:44:36.044Z,6.60
2023-03-05T22:47:02.477Z,7.53
2023-03-05T22:49:28.917Z,7.25
2023-03-05T22:51:56.685Z,6.07
2023-03-05T22:54:23.176Z,6.22
2023-03-05T22:56:49.616Z,9.68
2023-03-05T22:59:16.181Z,7.80
2023-03-05T23:01:42.721Z,9.52
2023-03-05T23:04:14.414Z,9.63
2023-03-05T23:06:46.676Z,7.47
2023-03-05T23:09:17.704Z,7.32
2023-03-05T23:11:48.031Z,7.75
2023-03-05T23:14:16.497Z,7.93
2023-03-05T23:16:45.181Z,8.95
2023-03-05T23:19:11.666Z,9.18
2023-03-05T23:21:47.692Z,9.90
2023-03-05T23:24:17.842Z,7.70
2023-03-05T23:26:47.090Z,10.00
2023-03-05T23:29:15.357Z,10.93
2023-03-05T23:31:41.784Z,8.43
2023-03-05T23:34:08.189Z,10.75
2023-03-05T23:36:34.549Z,9.43
2023-03-05T23:39:00.939Z,8.82
2023-03-05T23:41:28.828Z,11.35
2023-03-05T23:43:55.228Z,9.95
2023-03-05T23:46:21.727Z,9.75
2023-03-05T23:48:48.194Z,8.18
2023-03-05T23:51:17.252Z,9.75
2023-03-05T23:53:43.790Z,11.00
2023-03-05T23:56:11.987Z,10.85
2023-03-05T23:58:41.370Z,10.65
